Time;durP1;ratioP1;P1;durP2;ratioP2;P2;SDS_P1;SDS_P2;PMS_P1;PMS_P2;Temp;Humidity;BMP_temperature;BMP_pressure;BME280_temperature;BME280_humidity;BME280_pressure;Samples;Min_cycle;Max_cycle;Signal;HPM_P1;HPM_P2
2022/02/25 00:01:50;;;;;;;;;;;19.40;38.10;;;;;;5093266;28;19934;-68
2022/02/25 00:04:16;;;;;;;;;;;19.40;38.10;;;;;;5093162;28;19912;-67
2022/02/25 00:06:41;;;;;;;;;;;19.40;38.10;;;;;;5093163;28;19916;-67
2022/02/25 00:09:07;;;;;;;;;;;19.40;38.10;;;;;;5092889;28;19923;-66
2022/02/25 00:11:33;;;;;;;;;;;19.40;38.10;;;;;;5092712;28;20049;-67
2022/02/25 00:13:58;;;;;;;;;;;19.40;38.10;;;;;;5092883;28;19943;-67
2022/02/25 00:16:23;;;;;;;;;;;19.30;38.10;;;;;;5092716;28;19912;-67
2022/02/25 00:18:49;;;;;;;;;;;19.40;38.10;;;;;;5092790;28;19951;-66
2022/02/25 00:21:14;;;;;;;;;;;19.30;38.10;;;;;;5092802;28;20101;-67
2022/02/25 00:23:40;;;;;;;;;;;19.40;38.00;;;;;;5092618;28;20418;-66
2022/02/25 00:26:05;;;;;;;;;;;19.30;38.00;;;;;;5092731;28;19908;-67
2022/02/25 00:28:31;;;;;;;;;;;19.30;38.00;;;;;;5092633;28;19921;-67
2022/02/25 00:30:56;;;;;;;;;;;19.30;38.00;;;;;;5092560;28;19919;-66
2022/02/25 00:33:22;;;;;;;;;;;19.30;38.00;;;;;;5092745;28;19943;-66
2022/02/25 00:35:49;;;;;;;;;;;19.30;38.00;;;;;;5092416;28;19915;-67
2022/02/25 00:38:15;;;;;;;;;;;19.30;38.00;;;;;;5092368;28;19941;-66
2022/02/25 00:40:41;;;;;;;;;;;19.30;38.00;;;;;;5074588;28;19909;-67
2022/02/25 00:43:06;;;;;;;;;;;19.30;38.00;;;;;;5092513;28;20045;-67
2022/02/25 00:45:32;;;;;;;;;;;19.30;38.00;;;;;;5092376;28;19952;-66
2022/02/25 00:47:57;;;;;;;;;;;19.30;38.00;;;;;;5092459;28;19912;-66
2022/02/25 00:50:23;;;;;;;;;;;19.30;38.00;;;;;;5092572;28;19912;-67
2022/02/25 00:52:48;;;;;;;;;;;19.30;38.00;;;;;;5074235;28;19908;-66
2022/02/25 00:55:14;;;;;;;;;;;19.20;38.00;;;;;;5095491;28;19908;-66
2022/02/25 00:57:43;;;;;;;;;;;19.30;38.00;;;;;;5096637;28;19934;-66
2022/02/25 01:00:08;;;;;;;;;;;19.20;38.00;;;;;;5096310;28;19920;-67
2022/02/25 01:02:34;;;;;;;;;;;19.20;38.00;;;;;;5096352;28;20357;-67
2022/02/25 01:05:00;;;;;;;;;;;19.20;38.00;;;;;;5096355;28;19912;-66
2022/02/25 01:07:25;;;;;;;;;;;19.20;38.00;;;;;;5096140;28;19916;-67
2022/02/25 01:09:51;;;;;;;;;;;19.20;38.00;;;;;;5096078;28;20248;-67
2022/02/25 01:12:16;;;;;;;;;;;19.20;38.00;;;;;;5096303;28;19911;-67
2022/02/25 01:14:42;;;;;;;;;;;19.20;38.00;;;;;;5077942;28;20006;-66
2022/02/25 01:17:07;;;;;;;;;;;19.20;38.00;;;;;;5096169;28;19915;-67
2022/02/25 01:19:33;;;;;;;;;;;19.20;37.90;;;;;;5096144;28;19908;-67
2022/02/25 01:21:58;;;;;;;;;;;19.20;37.90;;;;;;5096029;28;19908;-67
2022/02/25 01:24:24;;;;;;;;;;;19.20;37.90;;;;;;5096123;28;19937;-66
2022/02/25 01:26:49;;;;;;;;;;;19.20;38.00;;;;;;5096059;28;19912;-67
2022/02/25 01:29:15;;;;;;;;;;;19.10;37.90;;;;;;5095673;28;20040;-66
2022/02/25 01:31:43;;;;;;;;;;;19.20;37.90;;;;;;5095871;28;20355;-67
2022/02/25 01:34:09;;;;;;;;;;;19.10;37.90;;;;;;5095806;28;19908;-66
2022/02/25 01:36:34;;;;;;;;;;;19.10;37.90;;;;;;5095422;28;20267;-66
2022/02/25 01:39:02;;;;;;;;;;;19.10;37.90;;;;;;5095765;28;19953;-67
2022/02/25 01:41:29;;;;;;;;;;;19.10;37.90;;;;;;5095850;28;19934;-67
2022/02/25 01:44:12;;;;;;;;;;;19.10;37.90;;;;;;5096060;28;20328;-67
2022/02/25 01:46:38;;;;;;;;;;;19.10;37.90;;;;;;5095787;28;19908;-67
2022/02/25 01:49:03;;;;;;;;;;;19.10;37.90;;;;;;5095795;28;20011;-66
2022/02/25 01:51:28;;;;;;;;;;;19.10;37.90;;;;;;5095545;28;19908;-67
2022/02/25 01:53:54;;;;;;;;;;;19.10;37.90;;;;;;5095600;28;19908;-67
2022/02/25 01:56:20;;;;;;;;;;;19.10;37.80;;;;;;5095586;28;20337;-66
2022/02/25 01:58:45;;;;;;;;;;;19.10;37.90;;;;;;5095505;28;20401;-67
2022/02/25 02:01:12;;;;;;;;;;;19.00;37.90;;;;;;5095190;28;19920;-67
2022/02/25 02:03:38;;;;;;;;;;;19.10;37.90;;;;;;5095334;28;20036;-67
2022/02/25 02:06:06;;;;;;;;;;;19.10;37.80;;;;;;5095471;28;20433;-67
2022/02/25 02:08:32;;;;;;;;;;;19.10;37.90;;;;;;5095293;28;19916;-67
2022/02/25 02:10:58;;;;;;;;;;;19.10;37.90;;;;;;5095151;28;19956;-66
2022/02/25 02:13:23;;;;;;;;;;;19.10;37.90;;;;;;5095131;28;19916;-67
2022/02/25 02:15:49;;;;;;;;;;;19.00;37.90;;;;;;5095137;28;19908;-67
2022/02/25 02:18:14;;;;;;;;;;;19.00;37.80;;;;;;5094976;28;19953;-67
2022/02/25 02:20:40;;;;;;;;;;;19.00;37.80;;;;;;5094991;28;19908;-67
2022/02/25 02:23:05;;;;;;;;;;;19.00;37.80;;;;;;5095095;28;19919;-67
2022/02/25 02:25:31;;;;;;;;;;;19.00;37.80;;;;;;5095119;28;19920;-67
2022/02/25 02:30:41;;;;;;;;;;;19.00;37.80;;;;;;5095390;28;19931;-67
2022/02/25 02:33:07;;;;;;;;;;;19.00;37.80;;;;;;5094992;28;20343;-67
2022/02/25 02:35:32;;;;;;;;;;;19.00;37.80;;;;;;5094809;28;19914;-67
2022/02/25 02:37:57;;;;;;;;;;;19.00;37.80;;;;;;5094867;28;19999;-66
2022/02/25 02:40:23;;;;;;;;;;;19.00;37.80;;;;;;5094688;28;20369;-66
2022/02/25 02:42:48;;;;;;;;;;;19.00;37.80;;;;;;5094713;28;19942;-67
2022/02/25 02:45:15;;;;;;;;;;;19.00;37.80;;;;;;5094589;28;19915;-67
2022/02/25 02:47:41;;;;;;;;;;;19.00;37.80;;;;;;5094500;28;19912;-67
2022/02/25 02:50:06;;;;;;;;;;;19.00;37.80;;;;;;5094601;28;19947;-67
2022/02/25 02:52:32;;;;;;;;;;;19.00;37.80;;;;;;5094279;28;19960;-67
2022/02/25 02:54:58;;;;;;;;;;;19.00;37.80;;;;;;5094412;28;19953;-66
2022/02/25 02:57:24;;;;;;;;;;;19.00;37.70;;;;;;5094127;28;19931;-67
2022/02/25 02:59:49;;;;;;;;;;;19.00;37.70;;;;;;5093862;28;20368;-67
2022/02/25 03:02:16;;;;;;;;;;;18.90;37.70;;;;;;5076025;28;19909;-67
2022/02/25 03:04:41;;;;;;;;;;;19.00;37.70;;;;;;5075926;28;19912;-67
2022/02/25 03:07:07;;;;;;;;;;;19.00;37.70;;;;;;5093826;28;19969;-66
2022/02/25 03:09:33;;;;;;;;;;;18.90;37.70;;;;;;5093784;28;20325;-67
2022/02/25 03:11:58;;;;;;;;;;;18.90;37.70;;;;;;5093995;28;19908;-67
2022/02/25 03:14:24;;;;;;;;;;;19.00;37.70;;;;;;5093985;28;19908;-66
2022/02/25 03:16:49;;;;;;;;;;;18.90;37.70;;;;;;5093748;28;19908;-67
2022/02/25 03:19:15;;;;;;;;;;;18.90;37.70;;;;;;5094004;28;19915;-67
2022/02/25 03:21:40;;;;;;;;;;;18.90;37.70;;;;;;5094206;28;19933;-66
2022/02/25 03:24:06;;;;;;;;;;;18.90;37.70;;;;;;5094086;28;19927;-67
2022/02/25 03:26:31;;;;;;;;;;;19.00;37.70;;;;;;5075714;28;20027;-67
2022/02/25 03:28:56;;;;;;;;;;;18.90;37.70;;;;;;5093795;28;19916;-67
2022/02/25 03:31:22;;;;;;;;;;;18.90;37.60;;;;;;5075708;28;20088;-67
2022/02/25 03:33:47;;;;;;;;;;;18.90;37.60;;;;;;5094046;28;20332;-67
2022/02/25 03:36:13;;;;;;;;;;;18.90;37.60;;;;;;5093757;28;19915;-67
2022/02/25 03:38:38;;;;;;;;;;;18.90;37.60;;;;;;5093783;28;19908;-67
2022/02/25 03:41:04;;;;;;;;;;;18.90;37.60;;;;;;5093800;28;19908;-67
2022/02/25 03:43:30;;;;;;;;;;;18.90;37.60;;;;;;5093668;28;19946;-66
2022/02/25 03:45:55;;;;;;;;;;;18.90;37.60;;;;;;5093438;28;20013;-67
2022/02/25 03:48:20;;;;;;;;;;;18.90;37.60;;;;;;5093598;28;20336;-67
2022/02/25 03:50:46;;;;;;;;;;;18.90;37.50;;;;;;5093458;28;19912;-67
2022/02/25 03:53:11;;;;;;;;;;;18.90;37.50;;;;;;5075228;28;19908;-67
2022/02/25 03:55:37;;;;;;;;;;;18.90;37.60;;;;;;5093370;28;19909;-67
2022/02/25 03:58:03;;;;;;;;;;;18.90;37.50;;;;;;5093190;28;20041;-67
2022/02/25 04:00:29;;;;;;;;;;;18.90;37.50;;;;;;5093194;28;19920;-67
2022/02/25 04:02:55;;;;;;;;;;;18.90;37.50;;;;;;5093313;28;20402;-67
2022/02/25 04:05:21;;;;;;;;;;;18.80;37.50;;;;;;5093331;28;19953;-67
2022/02/25 04:07:47;;;;;;;;;;;18.80;37.50;;;;;;5093116;28;19999;-67
2022/02/25 04:10:13;;;;;;;;;;;18.90;37.50;;;;;;5093203;28;19912;-67
2022/02/25 04:12:39;;;;;;;;;;;18.80;37.50;;;;;;5093157;28;19908;-66
2022/02/25 04:15:05;;;;;;;;;;;18.80;37.40;;;;;;5093026;28;19915;-67
2022/02/25 04:17:31;;;;;;;;;;;18.80;37.40;;;;;;5093238;28;20263;-67
2022/02/25 04:19:57;;;;;;;;;;;18.80;37.40;;;;;;5093335;28;19959;-66
2022/02/25 04:22:23;;;;;;;;;;;18.80;37.40;;;;;;5093005;28;20450;-67
2022/02/25 04:24:48;;;;;;;;;;;18.90;37.50;;;;;;5093056;28;19913;-67
2022/02/25 04:27:14;;;;;;;;;;;18.80;37.40;;;;;;5092923;28;20405;-66
2022/02/25 04:29:41;;;;;;;;;;;18.80;37.40;;;;;;5092152;28;20427;-67
2022/02/25 04:32:07;;;;;;;;;;;18.80;37.40;;;;;;5093156;28;19912;-67
2022/02/25 04:34:32;;;;;;;;;;;18.80;37.40;;;;;;5092820;28;19914;-66
2022/02/25 04:36:58;;;;;;;;;;;18.80;37.30;;;;;;5093084;28;20384;-67
2022/02/25 04:39:23;;;;;;;;;;;18.80;37.30;;;;;;5092902;28;19908;-67
2022/02/25 04:41:49;;;;;;;;;;;18.80;37.30;;;;;;5092567;28;20343;-66
2022/02/25 04:44:14;;;;;;;;;;;18.90;37.30;;;;;;5092535;28;20044;-67
2022/02/25 04:46:40;;;;;;;;;;;18.80;37.40;;;;;;5092452;28;19916;-67
2022/02/25 04:49:05;;;;;;;;;;;18.80;37.40;;;;;;5092318;28;20001;-66
2022/02/25 04:51:31;;;;;;;;;;;18.80;37.30;;;;;;5092281;28;19991;-67
2022/02/25 04:53:56;;;;;;;;;;;18.80;37.30;;;;;;5092130;28;19947;-67
2022/02/25 04:56:23;;;;;;;;;;;18.80;37.30;;;;;;5092314;28;19912;-67
2022/02/25 04:58:49;;;;;;;;;;;18.80;37.30;;;;;;5092093;28;19988;-67
2022/02/25 05:01:14;;;;;;;;;;;18.80;37.30;;;;;;5092009;28;20432;-67
2022/02/25 05:03:40;;;;;;;;;;;18.80;37.40;;;;;;5092288;28;20363;-66
2022/02/25 05:06:05;;;;;;;;;;;18.80;37.30;;;;;;5092227;28;19912;-67
2022/02/25 05:08:31;;;;;;;;;;;18.80;37.30;;;;;;5091962;28;19999;-67
2022/02/25 05:10:56;;;;;;;;;;;18.80;37.30;;;;;;5091968;28;19919;-67
2022/02/25 05:13:22;;;;;;;;;;;18.80;37.30;;;;;;5092054;28;19908;-67
2022/02/25 05:21:16;;;;;;;;;;;18.80;37.10;;;;;;5092356;28;19958;-67
2022/02/25 05:23:42;;;;;;;;;;;18.90;37.00;;;;;;5091910;28;19915;-67
2022/02/25 05:26:07;;;;;;;;;;;18.90;37.00;;;;;;5091925;28;19908;-67
2022/02/25 05:28:33;;;;;;;;;;;18.90;36.90;;;;;;5091977;28;20291;-67
2022/02/25 05:30:58;;;;;;;;;;;18.90;36.90;;;;;;5092044;28;20041;-67
2022/02/25 05:33:24;;;;;;;;;;;18.90;36.90;;;;;;5091732;28;20370;-67
2022/02/25 05:35:49;;;;;;;;;;;19.00;36.80;;;;;;5092005;28;19908;-67
2022/02/25 05:38:14;;;;;;;;;;;19.00;36.80;;;;;;5091770;28;19909;-67
2022/02/25 05:40:40;;;;;;;;;;;19.00;36.80;;;;;;5093939;28;20374;-67
2022/02/25 05:43:06;;;;;;;;;;;19.00;36.70;;;;;;5096077;28;19999;-67
2022/02/25 05:45:32;;;;;;;;;;;19.00;36.70;;;;;;5096145;28;20279;-67
2022/02/25 05:47:57;;;;;;;;;;;19.10;36.80;;;;;;5095926;28;19916;-67
2022/02/25 05:50:23;;;;;;;;;;;19.10;36.70;;;;;;5095993;28;20382;-67
2022/02/25 05:52:49;;;;;;;;;;;19.10;36.80;;;;;;5095813;28;19918;-67
2022/02/25 05:55:15;;;;;;;;;;;19.10;36.80;;;;;;5096096;28;19994;-67
2022/02/25 05:57:41;;;;;;;;;;;19.10;36.70;;;;;;5095720;28;20363;-67
2022/02/25 06:00:08;;;;;;;;;;;19.10;36.70;;;;;;5095374;28;20394;-67
2022/02/25 06:02:33;;;;;;;;;;;19.20;36.80;;;;;;5095370;28;20042;-67
2022/02/25 06:04:59;;;;;;;;;;;19.20;36.70;;;;;;5095434;28;20003;-67
2022/02/25 06:07:24;;;;;;;;;;;19.10;36.70;;;;;;5095232;28;19908;-67
2022/02/25 06:09:50;;;;;;;;;;;19.20;36.70;;;;;;5095115;28;19912;-67
2022/02/25 06:12:15;;;;;;;;;;;19.20;36.60;;;;;;5094853;28;19912;-67
2022/02/25 06:14:41;;;;;;;;;;;19.20;36.60;;;;;;5094646;28;19908;-66
2022/02/25 06:17:07;;;;;;;;;;;19.20;36.60;;;;;;5094675;28;19934;-66
2022/02/25 06:19:32;;;;;;;;;;;19.20;36.60;;;;;;5094866;28;19919;-67
2022/02/25 06:21:58;;;;;;;;;;;19.20;36.60;;;;;;5094674;28;19908;-66
2022/02/25 06:24:23;;;;;;;;;;;19.30;36.60;;;;;;5095010;28;20345;-67
2022/02/25 06:26:48;;;;;;;;;;;19.30;36.60;;;;;;5094685;28;19919;-67
2022/02/25 06:29:14;;;;;;;;;;;19.20;36.50;;;;;;5094636;28;19916;-67
2022/02/25 06:31:40;;;;;;;;;;;19.30;36.60;;;;;;5094512;28;19914;-67
2022/02/25 06:34:06;;;;;;;;;;;19.30;36.60;;;;;;5094453;28;19947;-66
2022/02/25 06:36:31;;;;;;;;;;;19.30;36.60;;;;;;5094367;28;19912;-67
2022/02/25 06:38:57;;;;;;;;;;;19.30;36.60;;;;;;5094426;28;19908;-68
2022/02/25 06:41:23;;;;;;;;;;;19.30;36.50;;;;;;5094325;28;19908;-67
2022/02/25 06:43:49;;;;;;;;;;;19.30;36.60;;;;;;5094791;28;19916;-67
2022/02/25 06:46:14;;;;;;;;;;;19.30;36.50;;;;;;5094932;28;19966;-67
2022/02/25 06:48:40;;;;;;;;;;;19.40;36.50;;;;;;5094554;28;20019;-67
2022/02/25 06:51:06;;;;;;;;;;;19.40;36.60;;;;;;5093821;28;19908;-67
2022/02/25 06:53:32;;;;;;;;;;;19.30;36.60;;;;;;5094338;28;19908;-67
2022/02/25 06:55:57;;;;;;;;;;;19.40;36.70;;;;;;5094538;28;19950;-68
2022/02/25 06:58:23;;;;;;;;;;;19.40;36.60;;;;;;5094277;28;19908;-67
2022/02/25 07:00:49;;;;;;;;;;;19.40;36.70;;;;;;5094083;28;19931;-67
2022/02/25 07:03:14;;;;;;;;;;;19.40;36.70;;;;;;5094284;28;19931;-67
2022/02/25 07:05:40;;;;;;;;;;;19.40;36.60;;;;;;5094353;28;19916;-67
2022/02/25 07:08:09;;;;;;;;;;;19.40;36.60;;;;;;5094045;28;20014;-67
2022/02/25 07:10:35;;;;;;;;;;;19.40;36.70;;;;;;5094400;28;19908;-66
2022/02/25 07:13:01;;;;;;;;;;;19.40;36.60;;;;;;5094314;28;19918;-68
2022/02/25 07:15:27;;;;;;;;;;;19.50;36.60;;;;;;5094002;28;19915;-67
2022/02/25 07:17:52;;;;;;;;;;;19.50;36.60;;;;;;5094224;28;19915;-67
2022/02/25 07:20:18;;;;;;;;;;;19.40;36.60;;;;;;5093979;28;19977;-67
2022/02/25 07:22:43;;;;;;;;;;;19.50;36.50;;;;;;5094288;28;19908;-67
2022/02/25 07:25:09;;;;;;;;;;;19.50;36.70;;;;;;5094614;28;19953;-67
2022/02/25 07:27:35;;;;;;;;;;;19.50;36.60;;;;;;5076142;28;19946;-66
2022/02/25 07:30:00;;;;;;;;;;;19.50;36.60;;;;;;5094191;28;19993;-67
2022/02/25 07:32:26;;;;;;;;;;;19.50;36.70;;;;;;5094094;28;19912;-67
2022/02/25 07:34:52;;;;;;;;;;;19.50;36.70;;;;;;5075872;28;19908;-67
2022/02/25 07:37:17;;;;;;;;;;;19.50;36.50;;;;;;5094080;28;19915;-66
2022/02/25 07:39:43;;;;;;;;;;;19.50;36.60;;;;;;5093775;28;20312;-68
2022/02/25 07:42:08;;;;;;;;;;;19.50;36.70;;;;;;5093778;28;19994;-67
2022/02/25 07:44:34;;;;;;;;;;;19.60;36.50;;;;;;5093707;28;20276;-68
2022/02/25 07:47:00;;;;;;;;;;;19.60;36.60;;;;;;5093735;28;19912;-68
2022/02/25 07:49:25;;;;;;;;;;;19.60;36.60;;;;;;5093147;28;19916;-67
2022/02/25 07:51:52;;;;;;;;;;;19.60;36.60;;;;;;5093462;28;20253;-68
2022/02/25 07:54:19;;;;;;;;;;;19.60;36.70;;;;;;5093370;28;19923;-67
2022/02/25 07:56:45;;;;;;;;;;;19.60;36.60;;;;;;5093119;28;19915;-67
2022/02/25 07:59:10;;;;;;;;;;;19.60;36.60;;;;;;5092852;28;20267;-67
2022/02/25 08:01:36;;;;;;;;;;;19.60;36.60;;;;;;5093101;28;19923;-67
2022/02/25 08:04:01;;;;;;;;;;;19.60;36.50;;;;;;5093017;28;20007;-67
2022/02/25 08:06:27;;;;;;;;;;;19.60;36.60;;;;;;5093481;28;19908;-68
2022/02/25 08:08:52;;;;;;;;;;;19.60;36.60;;;;;;5093030;28;19954;-68
2022/02/25 08:11:18;;;;;;;;;;;19.60;36.70;;;;;;5092841;28;19908;-67
2022/02/25 08:13:43;;;;;;;;;;;19.60;36.70;;;;;;5092687;28;19962;-67
2022/02/25 08:16:10;;;;;;;;;;;19.60;36.60;;;;;;5092637;28;19990;-67
2022/02/25 08:18:35;;;;;;;;;;;19.60;36.70;;;;;;5092278;28;19908;-67
2022/02/25 08:21:00;;;;;;;;;;;19.60;36.70;;;;;;5074953;28;20244;-68
2022/02/25 08:23:26;;;;;;;;;;;19.60;36.60;;;;;;5092976;28;19919;-67
2022/02/25 08:25:51;;;;;;;;;;;19.70;36.60;;;;;;5092574;28;19908;-66
2022/02/25 08:28:18;;;;;;;;;;;19.70;36.60;;;;;;5092744;28;20485;-67
2022/02/25 08:30:44;;;;;;;;;;;19.70;36.60;;;;;;5092781;28;19973;-67
2022/02/25 08:33:11;;;;;;;;;;;19.60;36.70;;;;;;5092688;28;19981;-67
2022/02/25 08:35:36;;;;;;;;;;;19.70;36.70;;;;;;5092679;28;20313;-67
2022/02/25 08:38:03;;;;;;;;;;;19.70;36.70;;;;;;5092389;28;20018;-67
2022/02/25 08:40:29;;;;;;;;;;;19.60;36.60;;;;;;5092516;28;19909;-67
2022/02/25 08:42:55;;;;;;;;;;;19.70;36.70;;;;;;5092255;28;19915;-68
2022/02/25 08:45:20;;;;;;;;;;;19.70;36.70;;;;;;5092193;28;19908;-67
2022/02/25 08:47:46;;;;;;;;;;;19.70;36.70;;;;;;5092085;28;19919;-66
2022/02/25 08:50:14;;;;;;;;;;;19.70;36.70;;;;;;5092756;28;20003;-67
2022/02/25 08:52:43;;;;;;;;;;;19.70;36.60;;;;;;5092566;28;19961;-67
2022/02/25 08:55:10;;;;;;;;;;;19.70;36.70;;;;;;5092087;28;19915;-66
2022/02/25 08:57:37;;;;;;;;;;;19.70;36.60;;;;;;5092100;28;19942;-67
2022/02/25 09:00:04;;;;;;;;;;;19.80;36.70;;;;;;5092101;28;20290;-67
2022/02/25 09:02:30;;;;;;;;;;;19.70;36.60;;;;;;5092121;28;19919;-67
2022/02/25 09:04:56;;;;;;;;;;;19.80;36.60;;;;;;5091822;28;19909;-67
2022/02/25 09:07:21;;;;;;;;;;;19.80;36.70;;;;;;5091948;28;19988;-67
2022/02/25 09:09:47;;;;;;;;;;;19.80;36.60;;;;;;5091669;28;19952;-67
2022/02/25 09:12:12;;;;;;;;;;;19.80;36.60;;;;;;5091793;28;19994;-67
2022/02/25 09:14:38;;;;;;;;;;;19.80;36.60;;;;;;5092301;28;19939;-67
2022/02/25 09:17:04;;;;;;;;;;;19.80;36.60;;;;;;5095931;28;20384;-66
2022/02/25 09:19:29;;;;;;;;;;;19.90;36.60;;;;;;5095880;28;19961;-67
2022/02/25 09:21:55;;;;;;;;;;;20.00;36.50;;;;;;5095891;28;19912;-67
2022/02/25 09:24:21;;;;;;;;;;;19.90;36.50;;;;;;5095696;28;19908;-67
2022/02/25 09:26:47;;;;;;;;;;;20.00;36.50;;;;;;5095734;28;19913;-67
2022/02/25 09:29:13;;;;;;;;;;;19.90;36.50;;;;;;5095705;28;19923;-67
2022/02/25 09:31:39;;;;;;;;;;;20.00;36.50;;;;;;5095445;28;19943;-67
2022/02/25 09:34:04;;;;;;;;;;;20.00;36.50;;;;;;5095546;28;19975;-66
2022/02/25 09:36:30;;;;;;;;;;;20.00;36.50;;;;;;5095896;28;19930;-66
2022/02/25 09:38:56;;;;;;;;;;;20.00;36.50;;;;;;5095652;28;20293;-66
2022/02/25 09:41:21;;;;;;;;;;;20.00;36.60;;;;;;5095312;28;20008;-67
2022/02/25 09:43:47;;;;;;;;;;;20.00;36.60;;;;;;5095273;28;19908;-67
2022/02/25 09:46:13;;;;;;;;;;;20.00;36.50;;;;;;5095511;28;19908;-67
2022/02/25 09:48:38;;;;;;;;;;;20.00;36.50;;;;;;5095389;28;20217;-67
2022/02/25 09:51:03;;;;;;;;;;;20.00;36.50;;;;;;5095453;28;20264;-67
2022/02/25 09:53:29;;;;;;;;;;;20.00;36.50;;;;;;5095310;28;19995;-67
2022/02/25 09:55:55;;;;;;;;;;;20.00;36.50;;;;;;5095376;28;19908;-67
2022/02/25 09:58:20;;;;;;;;;;;20.10;36.40;;;;;;5095033;28;19946;-67
2022/02/25 10:00:46;;;;;;;;;;;20.10;36.40;;;;;;5094958;28;19920;-67
2022/02/25 10:03:13;;;;;;;;;;;20.10;36.40;;;;;;5076851;28;19912;-67
2022/02/25 10:05:39;;;;;;;;;;;20.10;36.40;;;;;;5095082;28;19912;-66
2022/02/25 10:08:10;;;;;;;;;;;20.10;36.40;;;;;;5094831;28;20019;-67
2022/02/25 10:10:43;;;;;;;;;;;20.10;36.40;;;;;;5094791;28;19953;-67
2022/02/25 10:13:08;;;;;;;;;;;20.10;36.40;;;;;;5094620;28;19909;-66
2022/02/25 10:15:35;;;;;;;;;;;20.10;36.40;;;;;;5095041;28;19931;-67
2022/02/25 10:18:01;;;;;;;;;;;20.10;36.40;;;;;;5095145;28;20267;-67
2022/02/25 10:20:27;;;;;;;;;;;20.10;36.50;;;;;;5094711;28;19986;-66
2022/02/25 10:22:52;;;;;;;;;;;20.10;36.40;;;;;;5094954;28;19922;-67
2022/02/25 10:25:21;;;;;;;;;;;20.20;36.50;;;;;;5094709;28;19908;-67
2022/02/25 10:27:47;;;;;;;;;;;20.20;36.50;;;;;;5094446;28;20252;-67
2022/02/25 10:30:14;;;;;;;;;;;20.20;36.40;;;;;;5095265;28;19923;-67
2022/02/25 10:32:41;;;;;;;;;;;20.20;36.40;;;;;;5094532;28;19944;-67
2022/02/25 10:35:36;;;;;;;;;;;20.20;36.40;;;;;;5094641;28;19998;-66
2022/02/25 10:38:15;;;;;;;;;;;20.30;36.30;;;;;;5073005;28;19915;-67
2022/02/25 10:40:44;;;;;;;;;;;20.30;36.30;;;;;;5094683;28;19908;-67
2022/02/25 10:43:16;;;;;;;;;;;20.30;36.30;;;;;;5094341;28;20382;-67
2022/02/25 10:45:42;;;;;;;;;;;20.40;36.20;;;;;;5094449;28;19920;-67
2022/02/25 10:48:10;;;;;;;;;;;20.40;36.20;;;;;;5094401;28;19942;-66
2022/02/25 10:51:02;;;;;;;;;;;20.40;36.10;;;;;;5094184;28;20367;-66
2022/02/25 10:53:34;;;;;;;;;;;20.40;36.10;;;;;;5089419;28;20001;-67
2022/02/25 10:56:04;;;;;;;;;;;20.40;36.20;;;;;;5094081;28;20006;-67
2022/02/25 10:58:43;;;;;;;;;;;20.40;36.10;;;;;;5094061;28;20354;-67
2022/02/25 11:01:13;;;;;;;;;;;20.40;36.20;;;;;;5093822;28;19928;-67
2022/02/25 11:03:39;;;;;;;;;;;20.40;36.30;;;;;;5093973;28;19954;-67
2022/02/25 11:06:11;;;;;;;;;;;20.40;36.30;;;;;;5094096;28;19908;-66
2022/02/25 11:08:37;;;;;;;;;;;20.40;36.30;;;;;;5093684;28;19930;-67
2022/02/25 11:11:03;;;;;;;;;;;20.40;36.30;;;;;;5094131;28;19908;-66
2022/02/25 11:13:30;;;;;;;;;;;20.40;36.30;;;;;;5093891;28;19912;-67
2022/02/25 11:15:55;;;;;;;;;;;20.40;36.30;;;;;;5094049;28;19949;-67
2022/02/25 11:18:21;;;;;;;;;;;20.40;36.30;;;;;;5093860;28;19908;-67
2022/02/25 11:20:48;;;;;;;;;;;20.50;36.30;;;;;;5093986;28;19912;-66
2022/02/25 11:23:14;;;;;;;;;;;20.40;36.30;;;;;;5093782;28;20421;-67
2022/02/25 11:25:41;;;;;;;;;;;20.40;36.30;;;;;;5093626;28;20010;-67
2022/02/25 11:28:07;;;;;;;;;;;20.40;36.30;;;;;;5093208;28;20212;-66
2022/02/25 11:30:32;;;;;;;;;;;20.40;36.30;;;;;;5093144;28;20379;-67
2022/02/25 11:33:03;;;;;;;;;;;20.40;36.30;;;;;;5093110;28;19908;-67
2022/02/25 11:35:31;;;;;;;;;;;20.40;36.30;;;;;;5093400;28;19939;-67
2022/02/25 11:38:04;;;;;;;;;;;20.50;36.20;;;;;;5092821;28;19974;-67
2022/02/25 11:40:46;;;;;;;;;;;20.50;36.20;;;;;;5093308;28;19908;-67
2022/02/25 11:43:12;;;;;;;;;;;20.70;36.00;;;;;;5093462;28;19908;-67
2022/02/25 11:45:51;;;;;;;;;;;20.80;35.90;;;;;;5093290;28;19977;-67
2022/02/25 11:48:17;;;;;;;;;;;20.80;35.90;;;;;;5093306;28;19916;-67
2022/02/25 11:50:47;;;;;;;;;;;21.00;35.70;;;;;;5093573;28;20035;-67
2022/02/25 11:53:18;;;;;;;;;;;21.00;35.60;;;;;;5093403;28;19912;-67
2022/02/25 11:55:44;;;;;;;;;;;21.10;35.50;;;;;;5093274;28;20007;-67
2022/02/25 11:58:28;;;;;;;;;;;21.20;35.50;;;;;;5093027;28;20282;-67
2022/02/25 12:01:06;;;;;;;;;;;21.20;35.40;;;;;;5092774;28;20332;-67
2022/02/25 12:03:35;;;;;;;;;;;21.20;35.40;;;;;;5092753;28;19962;-66
2022/02/25 12:06:01;;;;;;;;;;;21.20;35.50;;;;;;5074659;28;19908;-67
2022/02/25 12:08:28;;;;;;;;;;;21.20;35.60;;;;;;5092926;28;20489;-66
2022/02/25 12:10:57;;;;;;;;;;;21.10;35.70;;;;;;5092939;28;19943;-66
2022/02/25 12:13:23;;;;;;;;;;;21.10;35.80;;;;;;5092717;28;19956;-67
2022/02/25 12:15:49;;;;;;;;;;;21.00;35.90;;;;;;5092798;28;19908;-67
2022/02/25 12:18:16;;;;;;;;;;;21.00;35.90;;;;;;5092801;28;19948;-67
2022/02/25 12:20:41;;;;;;;;;;;21.00;36.00;;;;;;5093105;28;19999;-67
2022/02/25 12:23:11;;;;;;;;;;;20.90;36.10;;;;;;5092992;28;20400;-67
2022/02/25 12:25:39;;;;;;;;;;;20.90;36.10;;;;;;5092777;28;19912;-67
2022/02/25 12:28:05;;;;;;;;;;;20.90;36.20;;;;;;5092677;28;20003;-67
2022/02/25 12:30:38;;;;;;;;;;;20.80;36.30;;;;;;5092669;28;19915;-67
2022/02/25 12:33:22;;;;;;;;;;;20.80;36.20;;;;;;5092581;28;19924;-68
2022/02/25 12:35:48;;;;;;;;;;;20.80;36.20;;;;;;5092764;28;19943;-66
2022/02/25 12:38:17;;;;;;;;;;;20.80;36.30;;;;;;5092429;28;19985;-67
2022/02/25 12:40:42;;;;;;;;;;;20.70;36.20;;;;;;5092320;28;19916;-67
2022/02/25 12:43:08;;;;;;;;;;;20.70;36.40;;;;;;5092358;28;20344;-66
2022/02/25 12:45:36;;;;;;;;;;;20.70;36.30;;;;;;5092254;28;20356;-66
2022/02/25 12:48:01;;;;;;;;;;;20.70;36.40;;;;;;5092383;28;19955;-67
2022/02/25 12:50:27;;;;;;;;;;;20.70;36.40;;;;;;5094127;28;19912;-66
2022/02/25 12:52:53;;;;;;;;;;;20.70;36.40;;;;;;5096265;28;19908;-67
2022/02/25 12:55:19;;;;;;;;;;;20.70;36.30;;;;;;5096616;28;19940;-66
2022/02/25 12:57:51;;;;;;;;;;;20.70;36.30;;;;;;5096445;28;20022;-67
2022/02/25 13:00:16;;;;;;;;;;;20.70;36.30;;;;;;5096847;28;19920;-66
2022/02/25 13:02:50;;;;;;;;;;;20.70;36.20;;;;;;5095931;28;19912;-67
2022/02/25 13:05:15;;;;;;;;;;;20.80;36.20;;;;;;5096090;28;19908;-67
2022/02/25 13:07:41;;;;;;;;;;;20.80;36.10;;;;;;5095945;28;19947;-67
2022/02/25 13:10:06;;;;;;;;;;;20.70;36.20;;;;;;5095797;28;19927;-67
2022/02/25 13:12:32;;;;;;;;;;;20.80;36.10;;;;;;5095792;28;20398;-67
2022/02/25 13:14:58;;;;;;;;;;;20.80;36.10;;;;;;5096052;28;19908;-67
2022/02/25 13:17:27;;;;;;;;;;;20.80;36.20;;;;;;5096271;28;20332;-67
2022/02/25 13:19:54;;;;;;;;;;;20.70;36.20;;;;;;5096097;28;20417;-67
2022/02/25 13:22:20;;;;;;;;;;;20.70;36.20;;;;;;5077546;28;19909;-67
2022/02/25 13:24:52;;;;;;;;;;;20.70;36.10;;;;;;5095599;28;20009;-66
2022/02/25 13:27:17;;;;;;;;;;;20.80;36.20;;;;;;5095725;28;20031;-67
2022/02/25 13:29:49;;;;;;;;;;;20.70;36.20;;;;;;5095503;28;20398;-67
2022/02/25 13:32:15;;;;;;;;;;;20.70;36.20;;;;;;5077370;28;19908;-67
2022/02/25 13:34:40;;;;;;;;;;;20.70;36.20;;;;;;5095479;28;20343;-67
2022/02/25 13:37:06;;;;;;;;;;;20.70;36.20;;;;;;5095519;28;19908;-67
2022/02/25 13:39:33;;;;;;;;;;;20.70;36.10;;;;;;5095323;28;19931;-67
2022/02/25 13:41:59;;;;;;;;;;;20.80;36.10;;;;;;5095528;28;19908;-67
2022/02/25 13:44:31;;;;;;;;;;;20.80;36.10;;;;;;5095256;28;19909;-67
2022/02/25 13:52:19;;;;;;;;;;;20.80;36.10;;;;;;5095334;28;19912;-66
2022/02/25 13:52:27;;;;;;;;;;;20.80;36.10;;;;;;5095495;28;19915;-67
2022/02/25 13:54:54;;;;;;;;;;;20.80;36.10;;;;;;5095286;28;19984;-66
2022/02/25 13:57:21;;;;;;;;;;;20.80;36.10;;;;;;5095419;28;19908;-66
2022/02/25 13:59:50;;;;;;;;;;;20.80;36.10;;;;;;5095342;28;19942;-66
2022/02/25 14:02:26;;;;;;;;;;;20.80;36.10;;;;;;5095400;28;19919;-66
2022/02/25 14:04:57;;;;;;;;;;;20.80;36.00;;;;;;5095544;28;19912;-66
2022/02/25 14:07:29;;;;;;;;;;;20.80;36.00;;;;;;5095610;28;20353;-66
2022/02/25 14:09:55;;;;;;;;;;;20.80;36.00;;;;;;5095566;28;19916;-66
2022/02/25 14:12:20;;;;;;;;;;;20.80;36.00;;;;;;5095335;28;20049;-66
2022/02/25 14:14:47;;;;;;;;;;;20.80;36.00;;;;;;5095137;28;19916;-66
2022/02/25 14:17:20;;;;;;;;;;;20.90;36.00;;;;;;5095300;28;19908;-66
2022/02/25 14:20:04;;;;;;;;;;;20.90;36.00;;;;;;5095072;28;19948;-67
2022/02/25 14:22:34;;;;;;;;;;;20.90;36.00;;;;;;5094949;28;19915;-67
2022/02/25 14:25:00;;;;;;;;;;;20.90;36.00;;;;;;5095300;28;19915;-67